Time;durP1;ratioP1;P1;durP2;ratioP2;P2;SDS_P1;SDS_P2;PMS_P1;PMS_P2;Temp;Humidity;BMP_temperature;BMP_pressure;BME280_temperature;BME280_humidity;BME280_pressure;Samples;Min_cycle;Max_cycle;Signal;HPM_P1;HPM_P2
2021/05/17 00:01:51;;;;;;;2.05;1.20;;;;;;;9.19;84.86;95692.41;128068;1101;21539;-84
2021/05/17 00:04:30;;;;;;;3.83;1.68;;;;;;;9.21;84.44;95687.61;128134;1101;22774;-83
2021/05/17 00:07:02;;;;;;;2.43;1.25;;;;;;;9.28;84.50;95685.34;128142;1101;22749;-83
2021/05/17 00:09:32;;;;;;;1.73;1.40;;;;;;;9.33;84.12;95681.85;128050;1096;22771;-83
2021/05/17 00:12:04;;;;;;;3.27;1.23;;;;;;;9.30;84.05;95669.22;128082;1101;22754;-82
2021/05/17 00:14:35;;;;;;;2.58;1.45;;;;;;;9.27;83.96;95672.42;128036;1096;22750;-82
2021/05/17 00:17:06;;;;;;;3.28;1.10;;;;;;;9.19;84.04;95671.25;128060;1101;22759;-86
2021/05/17 00:19:36;;;;;;;1.90;0.90;;;;;;;9.11;84.01;95677.98;128051;1101;22834;-83
2021/05/17 00:22:08;;;;;;;1.73;0.78;;;;;;;9.04;84.16;95674.95;128064;1094;26200;-83
2021/05/17 00:24:38;;;;;;;3.33;1.08;;;;;;;9.01;84.56;95669.44;128045;1101;22753;-83
2021/05/17 00:27:10;;;;;;;1.53;1.05;;;;;;;9.07;84.75;95663.00;128061;1096;24398;-84
2021/05/17 00:29:47;;;;;;;3.90;1.30;;;;;;;9.08;84.59;95668.00;128068;1101;22751;-83
2021/05/17 00:32:19;;;;;;;1.65;1.10;;;;;;;9.11;84.51;95663.98;128032;1101;22923;-85
2021/05/17 00:34:49;;;;;;;1.65;1.00;;;;;;;9.12;84.43;95663.69;128051;1101;23359;-83
2021/05/17 00:37:18;;;;;;;;;;;;;;;9.08;84.25;95659.28;128075;1101;22776;-83
2021/05/17 00:39:49;;;;;;;2.28;1.33;;;;;;;9.05;84.46;95659.87;128093;1101;21461;-84
2021/05/17 00:42:19;;;;;;;;;;;;;;;9.07;84.39;95661.14;128086;1101;22936;-83
2021/05/17 00:44:57;;;;;;;1.98;1.23;;;;;;;9.11;84.12;95669.27;128041;1101;21470;-84
2021/05/17 00:47:29;;;;;;;3.53;1.10;;;;;;;9.07;84.13;95657.72;128025;1101;24218;-88
2021/05/17 00:50:01;;;;;;;1.37;1.00;;;;;;;9.10;83.97;95649.98;128111;1101;25440;-84
2021/05/17 00:52:32;;;;;;;1.68;1.20;;;;;;;9.13;83.80;95652.03;128081;1101;22753;-84
2021/05/17 00:55:04;;;;;;;2.13;1.23;;;;;;;9.16;83.66;95650.69;128065;1101;22759;-83
2021/05/17 00:57:34;;;;;;;1.70;1.23;;;;;;;9.22;83.75;95649.51;128070;1101;23204;-82
2021/05/17 01:00:07;;;;;;;2.15;1.20;;;;;;;9.24;83.94;95647.35;128110;1101;22766;-83
2021/05/17 01:02:37;;;;;;;2.13;1.00;;;;;;;9.26;83.50;95649.70;128068;1101;22768;-83
2021/05/17 01:05:10;;;;;;;2.97;1.10;;;;;;;9.25;83.36;95646.27;128060;1101;22747;-83
2021/05/17 01:07:45;;;;;;;1.80;1.20;;;;;;;9.26;82.99;95642.55;128065;1101;22771;-81
2021/05/17 01:10:18;;;;;;;1.70;1.30;;;;;;;9.29;83.22;95636.70;128053;1094;25861;-84
2021/05/17 01:12:50;;;;;;;1.75;1.35;;;;;;;9.30;83.06;95637.48;128085;1094;24413;-83
2021/05/17 01:15:21;;;;;;;1.33;1.18;;;;;;;9.32;82.88;95635.32;128118;1101;22753;-83
2021/05/17 01:17:52;;;;;;;1.33;0.80;;;;;;;9.35;83.10;95632.86;128054;1101;22780;-84
2021/05/17 01:20:26;;;;;;;1.03;0.95;;;;;;;9.34;82.97;95626.02;128110;1101;22804;-83
2021/05/17 01:23:30;;;;;;;3.78;1.48;;;;;;;9.39;82.96;95630.41;128070;1101;22750;-84
2021/05/17 01:26:01;;;;;;;2.38;1.45;;;;;;;9.40;82.63;95619.53;128054;1101;22773;-82
2021/05/17 01:28:34;;;;;;;2.50;1.00;;;;;;;9.42;82.59;95616.59;128041;1101;22779;-84
2021/05/17 01:31:07;;;;;;;3.10;1.28;;;;;;;9.39;82.60;95612.67;128051;1101;22920;-83
2021/05/17 01:33:38;;;;;;;1.30;1.03;;;;;;;9.38;82.58;95624.34;128073;1094;26395;-83
2021/05/17 01:36:11;;;;;;;1.20;1.07;;;;;;;9.36;82.48;95607.20;128020;1101;22766;-86
2021/05/17 01:38:43;;;;;;;2.98;1.18;;;;;;;9.30;82.69;95614.46;128051;1096;25874;-83
2021/05/17 01:41:14;;;;;;;2.50;1.33;;;;;;;9.26;82.46;95613.45;128053;1101;24394;-84
2021/05/17 01:43:46;;;;;;;2.83;1.13;;;;;;;9.21;82.44;95608.28;128077;1101;22763;-85
2021/05/17 01:46:19;;;;;;;2.10;1.37;;;;;;;9.20;82.65;95607.49;128058;1093;26762;-84
2021/05/17 01:48:50;;;;;;;1.23;0.95;;;;;;;9.22;82.86;95610.63;128032;1101;22806;-84
2021/05/17 01:51:21;;;;;;;1.93;1.00;;;;;;;9.26;82.37;95602.09;128053;1096;22771;-87
2021/05/17 01:53:52;;;;;;;1.20;0.95;;;;;;;9.32;82.18;95609.66;128025;1095;26903;-86
2021/05/17 01:56:23;;;;;;;2.75;1.20;;;;;;;9.30;81.91;95606.53;128050;1094;26213;-83
2021/05/17 01:58:53;;;;;;;3.45;0.95;;;;;;;9.32;81.70;95607.01;128098;1101;22807;-83
2021/05/17 02:01:22;;;;;;;;;;;;;;;9.39;81.85;95604.73;128082;1101;22790;-83
2021/05/17 02:03:52;;;;;;;4.45;1.13;;;;;;;9.41;81.62;95605.22;128054;1101;21455;-84
2021/05/17 02:06:22;;;;;;;2.35;1.13;;;;;;;9.35;81.39;95613.57;128015;1094;26213;-84
2021/05/17 02:08:53;;;;;;;2.95;1.08;;;;;;;9.23;81.36;95606.91;128060;1101;22787;-83
2021/05/17 02:11:25;;;;;;;3.73;1.03;;;;;;;9.12;81.35;95596.80;128080;1096;26245;-84
2021/05/17 02:13:55;;;;;;;1.78;1.20;;;;;;;9.04;81.92;95594.86;128047;1101;22803;-85
2021/05/17 02:16:24;;;;;;;;;;;;;;;8.84;82.10;95591.48;128093;1101;24830;-85
2021/05/17 02:18:55;;;;;;;3.10;1.08;;;;;;;8.72;82.26;95593.81;128146;1101;23278;-83
2021/05/17 02:21:26;;;;;;;1.73;1.20;;;;;;;8.56;82.70;95598.57;128036;1101;22757;-85
2021/05/17 02:23:56;;;;;;;1.23;1.13;;;;;;;8.44;82.74;95598.23;128078;1101;22750;-83
2021/05/17 02:26:26;;;;;;;2.13;1.50;;;;;;;8.37;82.89;95597.05;128083;1101;22780;-85
2021/05/17 02:28:57;;;;;;;1.63;1.00;;;;;;;8.35;83.61;95599.20;128093;1101;24371;-84
2021/05/17 02:31:28;;;;;;;4.25;1.50;;;;;;;8.38;84.05;95603.91;128105;1101;22770;-84
2021/05/17 02:33:58;;;;;;;1.93;1.40;;;;;;;8.40;84.64;95602.53;128121;1101;22757;-85
2021/05/17 02:36:29;;;;;;;2.60;1.20;;;;;;;8.42;85.17;95594.32;128123;1101;22836;-87
2021/05/17 02:38:58;;;;;;;;;;;;;;;8.48;84.92;95598.47;128163;1101;26401;-83
2021/05/17 02:41:31;;;;;;;1.20;1.10;;;;;;;8.48;85.27;95588.68;128101;1101;21461;-85
2021/05/17 02:44:01;;;;;;;2.08;1.30;;;;;;;8.49;85.34;95582.33;128116;1101;22761;-84
2021/05/17 02:46:33;;;;;;;4.43;1.63;;;;;;;8.52;84.89;95588.88;128049;1101;22777;-84
2021/05/17 02:49:03;;;;;;;2.98;1.48;;;;;;;8.46;85.04;95590.84;128044;1101;22775;-84
2021/05/17 02:51:34;;;;;;;1.60;1.10;;;;;;;8.44;85.02;95592.17;128077;1096;27202;-82
2021/05/17 02:54:29;;;;;;;2.00;1.20;;;;;;;8.45;84.86;95599.83;128035;1101;22781;-83
2021/05/17 02:57:12;;;;;;;2.93;1.00;;;;;;;8.49;84.54;95589.47;128080;1101;25398;-84
2021/05/17 03:00:17;;;;;;;1.63;1.08;;;;;;;8.44;84.58;95579.75;128095;1101;22781;-82
2021/05/17 03:03:03;;;;;;;1.70;1.15;;;;;;;8.43;84.54;95587.97;128092;1101;22750;-83
2021/05/17 03:05:36;;;;;;;1.70;1.35;;;;;;;8.44;84.51;95590.31;128050;1101;22777;-84
2021/05/17 03:08:09;;;;;;;2.45;1.15;;;;;;;8.50;84.38;95591.03;128095;1101;22771;-83
2021/05/17 03:10:41;;;;;;;4.98;1.13;;;;;;;8.53;84.41;95588.59;128073;1101;22783;-83
2021/05/17 03:13:12;;;;;;;3.75;1.35;;;;;;;8.56;84.25;95587.22;128064;1101;23203;-88
2021/05/17 03:15:45;;;;;;;1.28;1.13;;;;;;;8.57;84.61;95596.71;128073;1101;24392;-83
2021/05/17 03:18:15;;;;;;;2.63;1.73;;;;;;;8.56;84.63;95597.78;128047;1101;22750;-86
2021/05/17 03:20:44;;;;;;;2.25;1.23;;;;;;;8.54;84.59;95592.80;128072;1101;22822;-82
2021/05/17 03:23:16;;;;;;;3.85;1.55;;;;;;;8.51;84.35;95589.95;128059;1101;22781;-83
2021/05/17 03:25:49;;;;;;;1.18;1.08;;;;;;;8.49;84.54;95582.33;128061;1101;24125;-82
2021/05/17 03:28:18;;;;;;;1.55;1.15;;;;;;;8.49;84.42;95584.19;128104;1101;22753;-85
2021/05/17 03:30:48;;;;;;;2.43;1.48;;;;;;;8.46;84.46;95595.33;128063;1094;22774;-86
2021/05/17 03:33:18;;;;;;;1.60;1.27;;;;;;;8.46;84.58;95590.84;128030;1101;22760;-87
2021/05/17 03:35:48;;;;;;;1.47;1.10;;;;;;;8.54;84.77;95586.73;128074;1101;23437;-83
2021/05/17 03:38:18;;;;;;;8.53;1.50;;;;;;;8.64;85.04;95591.85;128042;1101;22829;-83
2021/05/17 03:40:48;;;;;;;2.65;1.43;;;;;;;8.75;85.33;95603.82;128063;1101;22783;-85
2021/05/17 03:43:18;;;;;;;2.40;1.30;;;;;;;8.88;84.91;95597.78;128036;1096;22753;-85
2021/05/17 03:45:47;;;;;;;1.90;0.85;;;;;;;9.05;85.19;95596.42;128043;1101;22876;-85
2021/05/17 03:48:17;;;;;;;1.60;1.28;;;;;;;9.21;85.00;95597.70;128109;1101;22758;-85
2021/05/17 03:50:48;;;;;;;1.73;1.13;;;;;;;9.35;84.92;95605.63;128123;1101;22914;-86
2021/05/17 03:53:18;;;;;;;1.75;1.00;;;;;;;9.48;84.38;95602.20;128114;1101;24360;-85
2021/05/17 03:55:48;;;;;;;1.50;1.13;;;;;;;9.58;84.43;95606.52;128133;1101;22775;-84
2021/05/17 03:58:17;;;;;;;1.10;0.93;;;;;;;9.67;84.04;95602.85;128169;1101;24350;-84
2021/05/17 04:00:47;;;;;;;2.98;1.20;;;;;;;9.72;84.11;95608.06;128075;1101;22785;-83
2021/05/17 04:03:19;;;;;;;1.73;1.17;;;;;;;9.74;84.25;95603.25;128082;1101;22775;-85
2021/05/17 04:06:02;;;;;;;2.00;1.25;;;;;;;9.77;84.35;95604.52;128084;1101;25348;-86
2021/05/17 04:14:07;;;;;;;1.55;1.10;;;;;;;9.70;83.89;95612.06;128042;1101;22938;-84
2021/05/17 04:16:37;;;;;;;1.28;0.90;;;;;;;9.63;83.71;95617.77;128060;1101;22766;-82
2021/05/17 04:19:07;;;;;;;1.23;0.85;;;;;;;9.59;83.69;95613.37;128075;1101;22773;-82
2021/05/17 04:21:37;;;;;;;1.18;0.90;;;;;;;9.56;83.99;95598.84;128047;1101;22782;-83
2021/05/17 04:24:10;;;;;;;1.40;1.20;;;;;;;9.64;83.84;95607.96;128064;1095;27671;-83
2021/05/17 04:26:40;;;;;;;3.30;0.90;;;;;;;9.78;84.13;95603.43;128108;1096;22763;-82
2021/05/17 04:29:10;;;;;;;2.40;0.98;;;;;;;10.00;84.22;95592.90;128077;1101;22777;-86
2021/05/17 04:31:40;;;;;;;1.45;1.03;;;;;;;10.28;83.97;95595.48;128079;1101;22920;-83
2021/05/17 04:34:10;;;;;;;1.50;0.88;;;;;;;10.53;83.88;95592.20;128029;1101;22753;-84
2021/05/17 04:36:40;;;;;;;2.43;0.90;;;;;;;10.69;83.51;95596.05;128081;1096;27208;-83
2021/05/17 04:39:10;;;;;;;2.15;1.08;;;;;;;10.79;83.43;95594.23;128045;1101;23701;-86
2021/05/17 04:41:40;;;;;;;4.20;1.03;;;;;;;10.83;82.96;95600.48;128051;1101;22759;-83
2021/05/17 04:44:11;;;;;;;1.98;1.23;;;;;;;10.79;82.09;95610.14;128083;1101;24558;-86
2021/05/17 04:46:41;;;;;;;2.03;1.20;;;;;;;10.73;82.19;95612.15;128100;1101;22760;-82
2021/05/17 04:49:11;;;;;;;1.00;0.80;;;;;;;10.62;82.09;95611.61;128040;1101;22809;-84
2021/05/17 04:51:41;;;;;;;1.28;1.10;;;;;;;10.59;82.52;95620.17;128077;1096;27180;-82
2021/05/17 04:54:12;;;;;;;1.27;1.17;;;;;;;10.64;83.05;95617.38;128057;1096;26960;-83
2021/05/17 04:56:42;;;;;;;2.58;1.15;;;;;;;10.62;82.61;95616.13;128040;1101;22839;-83
2021/05/17 04:59:12;;;;;;;0.78;0.65;;;;;;;10.57;82.03;95627.64;128109;1101;22753;-86
2021/05/17 05:01:41;;;;;;;3.60;1.20;;;;;;;10.54;81.83;95624.79;128052;1101;24343;-82
2021/05/17 05:04:12;;;;;;;3.73;1.00;;;;;;;10.63;82.38;95615.82;128073;1094;22753;-85
2021/05/17 05:06:41;;;;;;;1.50;0.78;;;;;;;10.91;82.46;95613.02;128046;1096;27190;-83
2021/05/17 05:09:11;;;;;;;1.53;1.10;;;;;;;11.11;81.98;95620.44;128073;1096;26494;-86
2021/05/17 05:11:41;;;;;;;1.48;0.90;;;;;;;11.14;81.54;95622.50;128073;1101;22794;-83
2021/05/17 05:14:11;;;;;;;2.50;1.20;;;;;;;11.17;81.10;95615.80;128048;1101;22750;-85
2021/05/17 05:16:41;;;;;;;3.38;1.38;;;;;;;11.35;81.45;95614.77;128092;1101;22773;-82
2021/05/17 05:19:11;;;;;;;2.50;1.40;;;;;;;11.80;81.43;95609.30;128059;1101;22749;-84
2021/05/17 05:21:41;;;;;;;2.17;1.20;;;;;;;13.13;82.01;95613.91;128094;1095;26241;-83
2021/05/17 05:24:12;;;;;;;2.75;1.00;;;;;;;14.08;79.90;95603.58;128060;1101;22767;-83
2021/05/17 05:26:52;;;;;;;2.18;1.48;;;;;;;14.15;77.91;95593.16;128023;1101;22781;-82
2021/05/17 05:29:32;;;;;;;2.13;1.53;;;;;;;14.76;78.28;95593.44;128083;1101;22754;-87
2021/05/17 05:32:07;;;;;;;3.03;2.00;;;;;;;15.56;75.31;95593.00;128072;1101;22778;-83
2021/05/17 05:34:38;;;;;;;4.38;1.68;;;;;;;16.23;75.43;95582.80;128046;1101;22783;-84
2021/05/17 05:37:07;;;;;;;1.93;1.58;;;;;;;16.47;73.38;95581.92;128064;1101;22774;-85
2021/05/17 05:39:37;;;;;;;3.03;1.67;;;;;;;15.77;70.84;95581.45;128079;1101;22782;-83
2021/05/17 05:42:07;;;;;;;2.73;2.03;;;;;;;15.11;70.49;95587.75;128143;1101;24398;-85
2021/05/17 05:44:42;;;;;;;3.05;2.33;;;;;;;15.00;72.09;95583.94;128147;1101;22835;-84
2021/05/17 05:47:16;;;;;;;2.53;2.00;;;;;;;15.54;72.00;95581.09;128136;1101;22732;-86
2021/05/17 05:49:49;;;;;;;4.03;2.90;;;;;;;16.35;72.23;95574.73;128150;1101;22743;-85
2021/05/17 05:52:19;;;;;;;2.60;2.10;;;;;;;18.84;73.50;95564.43;128136;1101;22771;-85
2021/05/17 05:54:49;;;;;;;;;;;;;;;20.09;66.77;95555.64;128099;1101;22784;-84
2021/05/17 05:57:19;;;;;;;5.28;3.15;;;;;;;20.88;66.31;95558.14;128059;1101;21513;-86
2021/05/17 05:59:49;;;;;;;2.95;1.88;;;;;;;23.35;66.00;95559.09;128050;1096;22860;-87
2021/05/17 06:02:19;;;;;;;6.70;2.93;;;;;;;23.73;59.81;95553.33;128078;1101;22770;-85
2021/05/17 06:04:49;;;;;;;7.65;2.55;;;;;;;22.81;57.33;95554.77;128067;1096;22803;-85
2021/05/17 06:07:19;;;;;;;6.13;2.00;;;;;;;21.77;55.19;95542.70;128036;1101;22816;-85
2021/05/17 06:09:49;;;;;;;2.33;1.80;;;;;;;20.40;56.74;95549.10;128068;1101;23290;-84
2021/05/17 06:12:22;;;;;;;3.53;2.10;;;;;;;19.40;57.31;95561.16;128094;1096;26434;-85
2021/05/17 06:14:58;;;;;;;2.60;2.07;;;;;;;18.55;58.24;95567.69;128050;1101;22777;-86
2021/05/17 06:17:28;;;;;;;2.58;1.80;;;;;;;18.11;58.70;95570.65;128066;1101;22757;-85
2021/05/17 06:19:59;;;;;;;1.25;1.10;;;;;;;19.01;60.70;95567.81;128085;1101;22843;-84
2021/05/17 06:22:29;;;;;;;;;;;;;;;19.85;60.15;95563.03;128041;1101;22749;-84
2021/05/17 06:25:00;;;;;;;2.28;1.23;;;;;;;21.11;56.17;95546.40;128054;1096;21617;-84
2021/05/17 06:27:29;;;;;;;;;;;;;;;21.79;54.13;95536.92;128061;1096;26928;-85
2021/05/17 06:29:59;;;;;;;3.05;1.00;;;;;;;22.26;57.29;95530.66;128090;1101;21455;-85
2021/05/17 06:32:34;;;;;;;1.20;1.00;;;;;;;23.38;51.26;95527.83;128080;1101;22753;-85
2021/05/17 06:35:07;;;;;;;3.65;1.53;;;;;;;24.95;51.43;95521.93;128037;1101;22783;-84
2021/05/17 06:37:37;;;;;;;1.57;1.10;;;;;;;27.09;46.36;95528.67;128083;1101;22922;-85
2021/05/17 06:40:11;;;;;;;4.48;1.20;;;;;;;28.19;45.31;95515.91;128178;1101;22748;-86
2021/05/17 06:42:43;;;;;;;2.08;1.30;;;;;;;26.39;46.07;95526.48;128091;1101;22753;-84
2021/05/17 06:45:23;;;;;;;2.50;0.90;;;;;;;25.13;47.52;95519.89;128118;1095;25897;-86
2021/05/17 06:47:54;;;;;;;1.13;0.90;;;;;;;24.69;48.59;95515.11;128031;1101;22771;-87
2021/05/17 06:50:25;;;;;;;2.10;0.90;;;;;;;24.16;48.52;95516.86;128061;1101;22774;-84
2021/05/17 06:52:56;;;;;;;4.20;1.00;;;;;;;23.20;48.31;95508.10;128098;1101;22812;-89
2021/05/17 06:55:31;;;;;;;4.98;1.00;;;;;;;22.55;49.78;95514.56;128057;1101;22885;-84
2021/05/17 06:58:11;;;;;;;2.30;0.90;;;;;;;22.36;50.37;95512.94;128076;1101;22766;-83
2021/05/17 07:00:42;;;;;;;2.10;0.83;;;;;;;22.40;50.88;95509.11;128078;1101;22770;-84
2021/05/17 07:03:13;;;;;;;1.55;1.05;;;;;;;22.02;51.53;95515.86;128072;1096;22768;-86
2021/05/17 07:05:43;;;;;;;1.53;0.80;;;;;;;21.67;52.17;95510.26;128093;1101;24098;-84
2021/05/17 07:13:50;;;;;;;3.08;1.05;;;;;;;20.74;53.25;95496.05;128064;1101;22756;-85
2021/05/17 07:16:20;;;;;;;2.70;0.60;;;;;;;20.51;53.47;95493.49;128060;1101;22773;-84
2021/05/17 07:18:50;;;;;;;2.50;0.80;;;;;;;20.14;53.26;95493.45;128083;1101;22818;-85
2021/05/17 07:24:09;;;;;;;1.65;0.95;;;;;;;19.67;54.37;95494.76;128055;1101;22750;-85
2021/05/17 07:26:40;;;;;;;2.43;1.03;;;;;;;19.59;55.30;95493.13;128132;1101;22770;-84
2021/05/17 07:29:11;;;;;;;2.18;1.05;;;;;;;19.29;52.24;95493.05;128107;1101;22836;-85
2021/05/17 07:31:41;;;;;;;2.48;1.15;;;;;;;18.60;52.65;95497.63;128047;1101;22756;-83
2021/05/17 07:34:11;;;;;;;2.58;1.00;;;;;;;18.56;56.11;95494.09;128070;1101;22780;-85
2021/05/17 07:36:42;;;;;;;1.00;0.70;;;;;;;20.07;56.83;95483.37;128057;1101;22753;-83
2021/05/17 07:39:11;;;;;;;;;;;;;;;20.57;51.03;95473.19;128111;1101;22816;-86
2021/05/17 07:41:41;;;;;;;3.63;1.30;;;;;;;20.15;53.68;95479.63;128078;1101;21464;-83
2021/05/17 07:44:11;;;;;;;1.53;0.70;;;;;;;20.32;52.07;95472.12;128054;1101;22923;-84
2021/05/17 07:46:41;;;;;;;1.08;0.70;;;;;;;20.73;51.30;95470.25;128029;1101;22955;-84
2021/05/17 07:49:14;;;;;;;1.95;0.55;;;;;;;21.42;52.47;95466.97;128106;1101;22849;-86
2021/05/17 07:51:46;;;;;;;2.35;1.00;;;;;;;23.76;50.47;95461.30;128144;1101;22771;-84
2021/05/17 07:54:19;;;;;;;1.38;0.78;;;;;;;26.41;50.35;95455.41;128050;1101;22774;-87
2021/05/17 07:56:49;;;;;;;2.80;0.80;;;;;;;28.98;43.21;95449.58;128096;1101;22753;-85
2021/05/17 07:59:20;;;;;;;3.10;1.00;;;;;;;29.83;42.30;95438.48;128083;1101;22766;-85
2021/05/17 08:01:53;;;;;;;2.20;0.83;;;;;;;30.36;34.33;95433.50;128081;1101;22846;-87
2021/05/17 08:04:23;;;;;;;1.70;0.70;;;;;;;28.20;38.71;95432.96;128117;1101;22781;-88
2021/05/17 08:06:54;;;;;;;0.65;0.50;;;;;;;28.54;40.14;95437.33;128122;1101;22763;-87
2021/05/17 08:09:24;;;;;;;0.80;0.50;;;;;;;29.65;40.85;95433.50;128104;1101;22775;-84
2021/05/17 08:11:52;;;;;;;;;;;;;;;30.61;39.83;95436.26;128107;1101;22786;-90
2021/05/17 08:14:22;;;;;;;2.08;0.78;;;;;;;30.75;36.26;95434.32;128064;1096;21464;-87
2021/05/17 08:16:53;;;;;;;0.60;0.60;;;;;;;29.75;38.45;95431.69;128074;1094;26241;-87
2021/05/17 08:19:24;;;;;;;2.85;1.35;;;;;;;30.16;38.03;95432.93;128048;1101;22900;-84
2021/05/17 08:21:54;;;;;;;;;;;;;;;31.78;37.04;95439.17;128092;1101;22857;-90
2021/05/17 08:24:24;;;;;;;1.75;0.63;;;;;;;32.90;35.67;95416.20;128142;1101;21613;-88
2021/05/17 08:26:55;;;;;;;1.83;0.90;;;;;;;33.68;32.30;95419.70;128121;1101;22757;-88
2021/05/17 08:29:31;;;;;;;1.63;0.95;;;;;;;32.43;26.99;95413.72;128146;1101;22853;-88
2021/05/17 08:32:02;;;;;;;3.43;0.60;;;;;;;30.59;29.39;95422.25;128130;1101;22753;-85
2021/05/17 08:34:32;;;;;;;1.58;0.78;;;;;;;30.09;30.99;95418.25;128147;1101;22808;-88
2021/05/17 08:37:02;;;;;;;1.40;0.90;;;;;;;28.26;32.67;95414.94;128080;1101;22822;-85
2021/05/17 08:39:31;;;;;;;;;;;;;;;27.17;34.29;95411.16;128110;1101;22884;-85
2021/05/17 08:42:01;;;;;;;2.10;0.73;;;;;;;26.96;35.04;95413.42;128085;1101;21465;-86
2021/05/17 08:44:34;;;;;;;3.68;0.88;;;;;;;26.10;34.50;95414.64;128145;1094;27384;-86
2021/05/17 08:47:05;;;;;;;1.45;0.90;;;;;;;25.37;35.65;95410.40;128096;1101;22929;-85
2021/05/17 08:49:34;;;;;;;0.93;0.60;;;;;;;24.11;36.49;95417.09;128065;1101;22836;-87
2021/05/17 08:52:05;;;;;;;0.30;0.30;;;;;;;22.54;36.84;95421.17;128072;1101;22759;-84
2021/05/17 08:54:36;;;;;;;0.90;0.50;;;;;;;21.02;39.43;95430.85;128086;1101;22811;-85
2021/05/17 08:57:07;;;;;;;0.50;0.30;;;;;;;20.12;40.43;95426.52;128123;1101;22753;-87
2021/05/17 08:59:35;;;;;;;;;;;;;;;19.32;42.04;95422.45;128156;1101;22753;-84
2021/05/17 09:02:05;;;;;;;2.08;0.60;;;;;;;18.78;44.00;95431.61;128128;1101;21561;-85
2021/05/17 09:04:35;;;;;;;0.65;0.33;;;;;;;18.62;44.21;95438.98;128111;1094;22830;-88
2021/05/17 09:07:05;;;;;;;0.80;0.20;;;;;;;18.49;44.90;95435.70;128055;1101;22734;-86
2021/05/17 09:09:38;;;;;;;0.55;0.48;;;;;;;18.43;45.26;95434.43;128117;1096;22764;-87
2021/05/17 09:12:11;;;;;;;5.10;2.20;;;;;;;18.17;46.16;95437.05;128081;1101;22753;-86
2021/05/17 09:14:41;;;;;;;3.45;1.90;;;;;;;17.81;46.90;95433.66;128091;1101;22777;-83
2021/05/17 09:17:12;;;;;;;5.15;1.90;;;;;;;17.51;46.81;95441.45;128053;1101;22768;-85
2021/05/17 09:19:42;;;;;;;9.30;1.65;;;;;;;17.35;47.58;95441.49;128151;1101;22750;-84
2021/05/17 09:22:14;;;;;;;2.83;1.18;;;;;;;17.29;48.11;95439.41;128038;1101;22819;-86
2021/05/17 09:24:48;;;;;;;1.05;0.68;;;;;;;17.20;48.25;95453.80;128063;1101;22774;-83
2021/05/17 09:27:21;;;;;;;0.70;0.50;;;;;;;17.10;48.27;95448.97;128093;1101;22750;-85
2021/05/17 09:29:53;;;;;;;1.38;0.55;;;;;;;17.15;49.48;95456.72;128063;1100;24520;-85
2021/05/17 09:32:26;;;;;;;2.38;0.50;;;;;;;17.31;49.55;95455.91;128042;1095;26241;-84
2021/05/17 09:35:08;;;;;;;5.08;0.58;;;;;;;17.40;49.23;95464.55;128067;1101;22881;-84
2021/05/17 09:37:47;;;;;;;3.20;0.50;;;;;;;17.39;49.46;95455.73;128064;1095;27000;-85
2021/05/17 09:40:23;;;;;;;2.93;0.50;;;;;;;17.51;49.31;95454.84;128100;1101;22759;-85
2021/05/17 09:43:03;;;;;;;0.77;0.30;;;;;;;17.59;48.92;95461.89;128078;1101;22771;-85
2021/05/17 09:45:35;;;;;;;6.78;1.90;;;;;;;17.46;48.80;95460.48;128097;1101;22771;-85
2021/05/17 09:48:09;;;;;;;5.53;2.53;;;;;;;17.39;49.70;95455.73;128026;1101;23212;-84
2021/05/17 09:50:58;;;;;;;5.60;2.80;;;;;;;17.41;50.41;95450.02;128125;1101;22764;-84
2021/05/17 09:53:29;;;;;;;8.75;2.00;;;;;;;17.29;49.91;95455.49;128032;1101;22833;-87
2021/05/17 09:56:00;;;;;;;4.18;1.90;;;;;;;17.21;50.92;95455.34;128068;1101;22916;-86
2021/05/17 09:58:33;;;;;;;;;;;;;;;17.03;52.13;95445.33;128155;1101;22780;-85
2021/05/17 10:01:27;;;;;;;2.13;1.30;;;;;;;16.91;51.66;95441.66;128042;1101;21517;-83
2021/05/17 10:04:02;;;;;;;2.90;1.20;;;;;;;16.95;51.93;95448.98;128077;1101;22756;-84
2021/05/17 10:06:33;;;;;;;1.67;0.80;;;;;;;16.96;51.26;95447.86;128096;1101;22932;-85
2021/05/17 10:09:03;;;;;;;2.30;0.90;;;;;;;17.11;51.37;95442.48;128069;1101;22771;-84
2021/05/17 10:11:33;;;;;;;1.53;0.70;;;;;;;17.51;50.93;95431.50;128047;1101;22777;-85
2021/05/17 10:14:04;;;;;;;2.30;0.88;;;;;;;18.01;50.54;95432.52;128062;1101;24102;-83
2021/05/17 10:16:35;;;;;;;3.58;0.78;;;;;;;18.17;50.04;95423.63;128053;1101;22839;-86
2021/05/17 10:19:05;;;;;;;3.15;0.68;;;;;;;18.26;50.97;95424.94;128077;1101;22819;-85
2021/05/17 10:21:38;;;;;;;1.10;0.65;;;;;;;18.46;50.08;95416.86;128073;1101;22780;-86
2021/05/17 10:24:10;;;;;;;3.00;0.45;;;;;;;18.64;47.78;95412.59;128061;1101;22825;-83
2021/05/17 10:26:40;;;;;;;1.00;0.38;;;;;;;18.52;47.27;95412.73;128153;1096;25980;-85
2021/05/17 10:29:12;;;;;;;2.05;0.65;;;;;;;18.43;47.82;95412.19;128065;1101;22754;-85
2021/05/17 10:31:53;;;;;;;0.80;0.40;;;;;;;18.24;47.77;95411.11;128072;1101;23747;-84
2021/05/17 10:34:23;;;;;;;2.05;0.60;;;;;;;17.94;48.07;95408.26;128058;1101;22828;-84
2021/05/17 10:36:56;;;;;;;2.58;0.60;;;;;;;17.72;48.17;95415.09;128031;1101;22825;-83
2021/05/17 10:39:34;;;;;;;1.00;0.55;;;;;;;17.59;49.10;95410.97;128057;1101;22767;-87
2021/05/17 10:42:14;;;;;;;3.50;1.40;;;;;;;17.43;52.03;95408.35;128047;1101;22742;-83
2021/05/17 10:48:21;;;;;;;2.18;0.60;;;;;;;17.18;52.05;95413.20;128072;1101;22803;-85
2021/05/17 10:50:52;;;;;;;3.38;0.90;;;;;;;16.96;53.88;95408.47;128064;1101;24561;-88
2021/05/17 10:53:49;;;;;;;2.13;1.15;;;;;;;16.91;55.29;95404.17;128058;1101;22858;-85
2021/05/17 10:56:34;;;;;;;3.98;1.40;;;;;;;16.83;56.86;95407.80;128088;1101;22761;-86
2021/05/17 11:01:59;;;;;;;3.50;1.50;;;;;;;16.13;61.35;95402.22;128056;1101;22865;-84
2021/05/17 11:04:36;;;;;;;6.35;1.55;;;;;;;15.85;62.43;95404.92;128050;1101;22786;-84
2021/05/17 11:07:24;;;;;;;2.10;1.38;;;;;;;15.64;64.50;95402.45;128071;1101;22794;-85
2021/05/17 11:10:08;;;;;;;3.73;1.30;;;;;;;15.41;66.33;95409.39;128036;1101;22760;-84
2021/05/17 11:13:04;;;;;;;2.58;1.83;;;;;;;15.11;67.62;95406.22;128060;1101;22880;-84
2021/05/17 11:16:00;;;;;;;4.30;1.93;;;;;;;14.95;68.09;95402.69;128042;1095;25871;-84
2021/05/17 11:18:43;;;;;;;8.78;2.28;;;;;;;14.91;68.02;95407.89;128065;1096;23470;-85
2021/05/17 11:21:22;;;;;;;3.88;1.95;;;;;;;14.92;68.04;95409.48;128071;1101;22780;-84
2021/05/17 11:24:00;;;;;;;3.35;1.63;;;;;;;15.00;68.09;95410.45;128104;1101;22830;-83
2021/05/17 11:26:33;;;;;;;3.35;1.98;;;;;;;15.04;68.02;95408.66;128054;1101;22759;-87
2021/05/17 11:29:09;;;;;;;3.78;2.13;;;;;;;15.05;67.78;95405.66;128072;1101;22778;-84
2021/05/17 11:31:46;;;;;;;2.33;1.60;;;;;;;15.02;67.93;95414.34;128084;1101;22762;-84
2021/05/17 11:34:27;;;;;;;2.48;1.80;;;;;;;15.09;68.34;95413.80;128065;1101;22775;-85
2021/05/17 11:37:12;;;;;;;2.68;1.70;;;;;;;15.17;68.98;95398.75;128115;1101;22777;-87
2021/05/17 11:39:43;;;;;;;4.50;1.95;;;;;;;15.24;68.93;95399.75;128080;1101;22753;-83
2021/05/17 11:42:14;;;;;;;2.28;1.50;;;;;;;15.44;69.26;95400.69;128056;1095;22844;-84
2021/05/17 11:44:53;;;;;;;3.23;1.97;;;;;;;15.56;67.96;95399.88;128064;1096;26932;-83
2021/05/17 11:47:25;;;;;;;3.05;1.40;;;;;;;15.70;67.13;95394.96;128115;1101;22766;-85
2021/05/17 11:49:56;;;;;;;2.60;1.63;;;;;;;15.90;66.45;95401.98;128123;1101;24356;-87
2021/05/17 11:52:32;;;;;;;2.10;1.48;;;;;;;16.25;65.55;95396.81;128108;1101;22760;-87
2021/05/17 11:55:07;;;;;;;5.73;1.68;;;;;;;16.66;64.77;95391.30;128126;1095;26259;-84
2021/05/17 11:57:40;;;;;;;3.93;1.38;;;;;;;17.24;64.68;95396.84;128151;1101;22777;-84
2021/05/17 12:00:14;;;;;;;2.78;1.93;;;;;;;17.65;63.83;95390.05;128112;1101;22767;-86
2021/05/17 12:02:48;;;;;;;4.48;1.90;;;;;;;17.64;62.02;95391.95;128067;1101;22929;-84
2021/05/17 12:05:18;;;;;;;2.43;1.50;;;;;;;17.44;61.63;95388.47;128053;1101;22784;-85
2021/05/17 12:07:51;;;;;;;1.83;1.30;;;;;;;17.30;61.31;95385.49;128077;1101;22878;-86
2021/05/17 12:10:32;;;;;;;1.90;1.40;;;;;;;17.37;61.45;95387.56;128054;1101;22815;-85
2021/05/17 12:13:09;;;;;;;1.43;1.17;;;;;;;17.56;61.35;95387.56;128056;1101;22763;-84
2021/05/17 12:15:40;;;;;;;2.08;1.40;;;;;;;17.78;61.47;95376.17;128036;1101;23859;-84
2021/05/17 12:18:12;;;;;;;2.95;1.48;;;;;;;18.01;61.25;95375.42;128073;1101;22762;-84